Time;durP1;ratioP1;P1;durP2;ratioP2;P2;SDS_P1;SDS_P2;PMS_P1;PMS_P2;Temp;Humidity;BMP_temperature;BMP_pressure;BME280_temperature;BME280_humidity;BME280_pressure;Samples;Min_cycle;Max_cycle;Signal;HPM_P1;HPM_P2
2021/09/20 00:00:13;;;;;;;5.10;4.10;;;13.90;99.90;;;;;;2623944;47;20156;-76
2021/09/20 00:02:42;;;;;;;5.57;4.28;;;13.90;99.90;;;;;;2624182;54;20678;-75
2021/09/20 00:05:11;;;;;;;4.72;3.65;;;13.80;99.90;;;;;;2624333;54;20272;-75
2021/09/20 00:07:43;;;;;;;4.68;3.63;;;13.70;99.90;;;;;;2623959;47;20171;-75
2021/09/20 00:10:13;;;;;;;3.90;3.60;;;13.80;99.90;;;;;;2624555;47;20149;-76
2021/09/20 00:12:42;;;;;;;5.13;4.40;;;13.90;99.90;;;;;;2624607;54;20149;-75
2021/09/20 00:15:12;;;;;;;4.38;3.40;;;14.00;99.90;;;;;;2623950;54;20149;-74
2021/09/20 00:17:41;;;;;;;6.10;4.22;;;14.10;99.90;;;;;;2624334;47;20229;-76
2021/09/20 00:20:13;;;;;;;4.15;3.85;;;14.00;99.90;;;;;;2624186;54;20156;-75
2021/09/20 00:22:45;;;;;;;4.78;4.13;;;13.90;99.90;;;;;;2624679;47;20138;-75
2021/09/20 00:25:15;;;;;;;4.38;3.33;;;14.00;99.90;;;;;;2624582;39;20579;-76
2021/09/20 00:27:44;;;;;;;4.50;3.13;;;14.00;99.90;;;;;;2624145;46;20165;-76
2021/09/20 00:30:14;;;;;;;4.32;3.92;;;13.90;99.90;;;;;;2624284;54;20777;-78
2021/09/20 00:32:43;;;;;;;5.75;4.13;;;13.90;99.90;;;;;;2624595;39;20559;-76
2021/09/20 00:35:13;;;;;;;5.43;3.45;;;13.90;99.90;;;;;;2624613;46;20156;-76
2021/09/20 00:37:44;;;;;;;5.20;4.25;;;13.80;99.90;;;;;;2624622;54;20149;-76
2021/09/20 00:40:14;;;;;;;4.07;3.08;;;13.80;99.90;;;;;;2625073;39;20491;-76
2021/09/20 00:42:44;;;;;;;4.88;3.40;;;13.80;99.90;;;;;;2625573;39;20619;-75
2021/09/20 00:45:13;;;;;;;4.93;3.85;;;13.80;99.90;;;;;;2624844;47;20145;-74
2021/09/20 00:47:42;;;;;;;3.63;3.30;;;13.80;99.90;;;;;;2623895;54;20172;-76
2021/09/20 00:50:12;;;;;;;6.53;4.47;;;13.90;99.90;;;;;;2624863;39;20573;-75
2021/09/20 00:52:44;;;;;;;4.65;3.30;;;13.90;99.90;;;;;;2624473;46;20156;-76
2021/09/20 00:55:14;;;;;;;4.47;3.13;;;13.80;99.90;;;;;;2624598;47;20162;-76
2021/09/20 00:57:44;;;;;;;7.75;3.80;;;13.90;99.90;;;;;;2624266;47;20181;-75
2021/09/20 01:00:14;;;;;;;3.88;3.53;;;13.80;99.90;;;;;;2624220;46;20145;-75
2021/09/20 01:02:43;;;;;;;4.97;3.28;;;13.70;99.90;;;;;;2624873;54;20149;-75
2021/09/20 01:05:13;;;;;;;4.28;3.65;;;13.80;99.90;;;;;;2623881;54;20365;-74
2021/09/20 01:07:45;;;;;;;3.42;3.13;;;13.80;99.90;;;;;;2624727;54;20157;-75
2021/09/20 01:10:14;;;;;;;4.95;3.30;;;13.70;99.90;;;;;;2624758;54;20152;-75
2021/09/20 01:12:43;;;;;;;4.35;3.88;;;13.80;99.90;;;;;;2624852;54;20149;-75
2021/09/20 01:15:13;;;;;;;4.82;3.55;;;13.80;99.90;;;;;;2624367;54;20160;-75
2021/09/20 01:17:42;;;;;;;3.67;3.03;;;13.90;99.90;;;;;;2625037;47;20180;-75
2021/09/20 01:20:12;;;;;;;6.78;3.78;;;14.00;99.90;;;;;;2625338;54;20141;-74
2021/09/20 01:22:42;;;;;;;4.25;3.70;;;13.90;99.90;;;;;;2624941;54;20141;-74
2021/09/20 01:25:14;;;;;;;3.88;3.17;;;13.90;99.90;;;;;;2624720;46;20161;-74
2021/09/20 01:27:43;;;;;;;5.13;3.00;;;13.70;99.90;;;;;;2623842;47;20188;-75
2021/09/20 01:30:13;;;;;;;4.85;3.33;;;13.60;99.90;;;;;;2624390;54;20145;-74
2021/09/20 01:32:42;;;;;;;4.50;3.80;;;13.60;99.90;;;;;;2624047;54;20154;-74
2021/09/20 01:35:11;;;;;;;4.25;3.30;;;13.70;99.90;;;;;;2623714;54;20153;-75
2021/09/20 01:37:40;;;;;;;4.20;3.80;;;13.60;99.90;;;;;;2624323;54;20157;-75
2021/09/20 01:40:13;;;;;;;5.55;3.42;;;13.50;99.90;;;;;;2623085;47;20154;-73
2021/09/20 01:42:43;;;;;;;3.70;3.35;;;13.60;99.90;;;;;;2623054;47;20674;-74
2021/09/20 01:45:14;;;;;;;3.78;3.35;;;13.70;99.90;;;;;;2623546;54;20141;-74
2021/09/20 01:47:43;;;;;;;7.30;3.55;;;13.60;99.90;;;;;;2623928;54;20164;-74
2021/09/20 01:50:13;;;;;;;4.28;3.58;;;13.70;99.90;;;;;;2623718;54;20157;-76
2021/09/20 01:52:42;;;;;;;3.58;3.22;;;13.70;99.90;;;;;;2624347;54;20156;-74
2021/09/20 01:55:15;;;;;;;6.20;3.53;;;13.80;99.90;;;;;;2623508;54;20167;-75
2021/09/20 01:57:44;;;;;;;3.00;2.80;;;13.70;99.90;;;;;;2624066;54;20160;-72
2021/09/20 02:00:16;;;;;;;4.38;3.17;;;13.70;99.90;;;;;;2624509;47;20719;-73
2021/09/20 02:02:45;;;;;;;4.32;3.38;;;13.80;99.90;;;;;;2623692;47;20684;-75
2021/09/20 02:05:15;;;;;;;4.68;3.17;;;13.70;99.90;;;;;;2623505;54;20145;-75
2021/09/20 02:07:46;;;;;;;4.30;2.92;;;13.70;99.90;;;;;;2624055;47;20698;-74
2021/09/20 02:10:19;;;;;;;4.45;3.28;;;13.50;99.90;;;;;;2623705;47;20157;-74
2021/09/20 02:12:48;;;;;;;2.83;2.53;;;13.40;99.90;;;;;;2623638;51;20137;-74
2021/09/20 02:15:17;;;;;;;6.35;3.05;;;13.50;99.90;;;;;;2624524;39;20582;-74
2021/09/20 02:17:46;;;;;;;3.38;2.85;;;13.50;99.90;;;;;;2624501;47;20183;-76
2021/09/20 02:20:16;;;;;;;2.80;2.60;;;13.50;99.90;;;;;;2624600;54;20163;-72
2021/09/20 02:22:44;;;;;;;6.75;2.97;;;13.50;99.90;;;;;;2624765;46;20660;-74
2021/09/20 02:25:14;;;;;;;6.18;3.55;;;13.50;99.90;;;;;;2624337;54;20152;-75
2021/09/20 02:27:45;;;;;;;5.13;3.53;;;13.50;99.90;;;;;;2624761;54;20152;-74
2021/09/20 02:30:15;;;;;;;5.57;3.13;;;13.50;99.90;;;;;;2625003;39;20591;-75
2021/09/20 02:32:45;;;;;;;5.95;3.33;;;13.40;99.90;;;;;;2624418;54;20180;-75
2021/09/20 02:35:14;;;;;;;3.63;3.10;;;13.70;99.90;;;;;;2624008;54;20145;-74
2021/09/20 02:37:43;;;;;;;4.55;3.45;;;13.50;99.90;;;;;;2624336;54;20734;-77
2021/09/20 02:40:13;;;;;;;3.58;3.08;;;13.50;99.90;;;;;;2624520;54;20145;-76
2021/09/20 02:42:45;;;;;;;4.30;3.70;;;13.60;99.90;;;;;;2625087;54;20686;-75
2021/09/20 02:45:15;;;;;;;6.57;2.85;;;13.70;99.90;;;;;;2625436;54;20157;-76
2021/09/20 02:47:44;;;;;;;3.83;2.95;;;13.50;99.90;;;;;;2624936;54;20184;-75
2021/09/20 02:50:14;;;;;;;6.22;2.80;;;13.50;99.90;;;;;;2625257;54;20148;-75
2021/09/20 02:52:43;;;;;;;3.45;2.80;;;13.40;99.90;;;;;;2625730;54;20145;-73
2021/09/20 02:55:14;;;;;;;3.88;3.10;;;13.50;99.90;;;;;;2624470;54;20152;-74
2021/09/20 02:57:45;;;;;;;5.22;3.30;;;13.40;99.90;;;;;;2625186;47;20173;-73
2021/09/20 03:00:16;;;;;;;4.07;2.90;;;13.30;99.90;;;;;;2624788;39;20572;-75
2021/09/20 03:02:45;;;;;;;4.82;3.22;;;13.40;99.90;;;;;;2624564;47;20153;-76
2021/09/20 03:05:14;;;;;;;4.75;2.95;;;13.40;99.90;;;;;;2624686;54;20153;-74
2021/09/20 03:07:42;;;;;;;3.50;2.78;;;13.50;99.90;;;;;;2624654;54;20168;-76
2021/09/20 03:10:12;;;;;;;4.75;2.28;;;13.40;99.90;;;;;;2625547;54;20163;-74
2021/09/20 03:12:41;;;;;;;5.70;2.95;;;13.40;99.90;;;;;;2623368;54;20157;-75
2021/09/20 03:15:13;;;;;;;2.67;2.47;;;13.30;99.90;;;;;;2625111;54;20153;-75
2021/09/20 03:17:41;;;;;;;4.97;3.22;;;13.30;99.90;;;;;;2625928;39;20613;-76
2021/09/20 03:20:11;;;;;;;3.05;2.75;;;13.30;99.90;;;;;;2622232;47;20244;-74
2021/09/20 03:22:40;;;;;;;3.58;2.88;;;13.30;99.90;;;;;;2619769;54;20663;-74
2021/09/20 03:25:11;;;;;;;3.13;2.38;;;13.40;99.90;;;;;;2620003;39;20246;-74
2021/09/20 03:27:40;;;;;;;4.47;3.33;;;13.40;99.90;;;;;;2619331;54;20149;-74
2021/09/20 03:30:15;;;;;;;11.13;3.35;;;13.30;99.90;;;;;;2619589;54;20273;-74
2021/09/20 03:32:44;;;;;;;3.15;2.83;;;13.40;99.90;;;;;;2619406;46;20164;-75
2021/09/20 03:35:14;;;;;;;6.00;3.00;;;13.30;99.90;;;;;;2619589;54;20149;-74
2021/09/20 03:37:43;;;;;;;5.53;3.92;;;13.30;99.90;;;;;;2619844;54;20145;-74
2021/09/20 03:40:16;;;;;;;2.85;2.65;;;13.20;99.90;;;;;;2619479;47;20184;-75
2021/09/20 03:42:45;;;;;;;3.40;3.10;;;13.20;99.90;;;;;;2619480;47;20153;-74
2021/09/20 03:45:17;;;;;;;3.15;2.80;;;13.20;99.90;;;;;;2619857;47;20682;-74
2021/09/20 03:47:47;;;;;;;2.92;2.63;;;13.30;99.90;;;;;;2620512;39;20548;-74
2021/09/20 03:50:16;;;;;;;8.63;3.47;;;13.20;99.90;;;;;;2619496;54;20181;-74
2021/09/20 03:52:46;;;;;;;4.20;2.95;;;13.30;99.90;;;;;;2619805;54;20160;-74
2021/09/20 03:55:16;;;;;;;4.03;2.40;;;13.30;99.90;;;;;;2618826;47;20245;-74
2021/09/20 03:57:45;;;;;;;5.85;3.80;;;13.50;99.90;;;;;;2619857;47;20150;-74
2021/09/20 04:00:17;;;;;;;3.65;2.88;;;13.40;99.90;;;;;;2619268;47;20176;-74
2021/09/20 04:02:46;;;;;;;4.32;2.72;;;13.40;99.90;;;;;;2619184;46;20676;-74
2021/09/20 04:05:15;;;;;;;3.38;2.65;;;13.40;99.90;;;;;;2619167;47;20165;-75
2021/09/20 04:07:44;;;;;;;2.50;2.30;;;13.40;99.90;;;;;;2619481;47;20160;-74
2021/09/20 04:10:14;;;;;;;4.20;3.10;;;13.30;99.90;;;;;;2619184;54;20239;-74
2021/09/20 04:12:42;;;;;;;4.78;2.90;;;13.40;99.90;;;;;;2619010;54;20145;-74
2021/09/20 04:15:13;;;;;;;2.97;2.42;;;13.30;99.90;;;;;;2619142;54;20145;-74
2021/09/20 04:17:45;;;;;;;2.60;2.40;;;13.20;99.90;;;;;;2619369;47;20145;-74
2021/09/20 04:20:15;;;;;;;4.00;2.95;;;13.20;99.90;;;;;;2620215;39;20593;-74
2021/09/20 04:22:44;;;;;;;3.17;2.88;;;13.20;99.90;;;;;;2619347;47;20157;-75
2021/09/20 04:25:14;;;;;;;6.32;3.25;;;13.10;99.90;;;;;;2619213;54;20145;-74
2021/09/20 04:27:43;;;;;;;2.47;2.28;;;13.20;99.90;;;;;;2619257;47;20160;-74
2021/09/20 04:30:13;;;;;;;5.65;3.63;;;13.20;99.90;;;;;;2619413;47;20176;-74
2021/09/20 04:32:45;;;;;;;2.83;2.63;;;13.10;99.90;;;;;;2618899;54;20283;-75
2021/09/20 04:35:14;;;;;;;3.47;2.65;;;13.20;99.90;;;;;;2619368;47;20160;-74
2021/09/20 04:37:43;;;;;;;2.95;2.75;;;13.20;99.90;;;;;;2618513;54;20156;-74
2021/09/20 04:40:13;;;;;;;4.10;2.45;;;13.20;99.90;;;;;;2619070;54;20157;-75
2021/09/20 04:42:42;;;;;;;3.58;3.20;;;13.20;99.90;;;;;;2619036;54;20663;-74
2021/09/20 04:45:12;;;;;;;4.10;2.67;;;13.20;99.90;;;;;;2618724;54;20157;-74
2021/09/20 04:47:41;;;;;;;3.17;2.88;;;13.10;99.90;;;;;;2618925;46;20173;-74
2021/09/20 04:50:13;;;;;;;4.53;3.05;;;13.10;99.90;;;;;;2618214;54;20169;-73
2021/09/20 04:52:42;;;;;;;6.25;2.67;;;13.20;99.90;;;;;;2619766;39;20638;-74
2021/09/20 04:55:12;;;;;;;8.90;7.95;;;13.20;99.90;;;;;;2619073;54;20713;-74
2021/09/20 04:57:41;;;;;;;4.20;3.30;;;13.10;99.90;;;;;;2619173;54;20386;-75
2021/09/20 05:00:12;;;;;;;3.28;2.63;;;13.20;99.90;;;;;;2619747;54;20180;-73
2021/09/20 05:02:41;;;;;;;3.10;2.80;;;13.30;99.90;;;;;;2618868;47;20164;-72
2021/09/20 05:05:14;;;;;;;5.70;2.85;;;13.20;99.90;;;;;;2619210;47;20161;-74
2021/09/20 05:07:43;;;;;;;5.22;4.72;;;13.10;99.90;;;;;;2618693;54;20149;-73
2021/09/20 05:10:12;;;;;;;4.15;3.40;;;13.10;99.90;;;;;;2619149;47;20184;-73
2021/09/20 05:12:41;;;;;;;3.13;2.92;;;13.10;99.90;;;;;;2619152;54;20165;-73
2021/09/20 05:15:12;;;;;;;5.90;2.80;;;13.10;99.90;;;;;;2619266;54;20164;-74
2021/09/20 05:17:41;;;;;;;5.68;2.85;;;13.30;99.90;;;;;;2619594;54;20152;-74
2021/09/20 05:20:15;;;;;;;6.03;2.60;;;13.20;99.90;;;;;;2618910;47;20179;-73
2021/09/20 05:22:45;;;;;;;2.72;2.53;;;13.20;99.90;;;;;;2619219;54;20153;-73
2021/09/20 05:25:14;;;;;;;6.25;4.78;;;13.30;99.90;;;;;;2618483;54;20682;-74
2021/09/20 05:27:43;;;;;;;3.15;2.80;;;13.20;99.90;;;;;;2618935;47;20241;-74
2021/09/20 05:30:13;;;;;;;4.82;3.33;;;13.30;99.90;;;;;;2618750;47;20181;-74
2021/09/20 05:32:43;;;;;;;3.13;2.83;;;13.20;99.90;;;;;;2620375;39;20579;-74
2021/09/20 05:35:16;;;;;;;4.00;3.10;;;13.30;99.90;;;;;;2619183;39;20626;-74
2021/09/20 05:37:48;;;;;;;2.95;2.72;;;13.20;99.90;;;;;;2621932;47;20153;-77
2021/09/20 05:40:18;;;;;;;4.38;2.70;;;13.30;99.90;;;;;;2625990;47;20185;-77
2021/09/20 05:42:47;;;;;;;3.10;2.80;;;13.30;99.90;;;;;;2623966;54;20210;-76
2021/09/20 05:45:17;;;;;;;3.40;2.45;;;13.30;99.90;;;;;;2623344;47;20707;-75
2021/09/20 05:47:47;;;;;;;3.20;2.92;;;13.20;99.90;;;;;;2623717;46;20675;-76
2021/09/20 05:50:19;;;;;;;3.63;2.85;;;13.40;99.90;;;;;;2624154;54;20352;-77
2021/09/20 05:52:48;;;;;;;3.63;2.72;;;13.40;99.90;;;;;;2622211;54;20783;-76
2021/09/20 05:55:18;;;;;;;5.40;2.53;;;13.30;99.90;;;;;;2622727;47;20217;-76
2021/09/20 05:57:47;;;;;;;2.70;2.28;;;13.50;99.90;;;;;;2622969;47;20204;-75
2021/09/20 06:00:16;;;;;;;3.13;2.38;;;13.40;99.90;;;;;;2623772;54;20711;-76
2021/09/20 06:02:45;;;;;;;3.33;2.80;;;13.30;99.90;;;;;;2623702;46;20175;-76
2021/09/20 06:05:15;;;;;;;3.42;2.25;;;13.40;99.90;;;;;;2624559;54;20151;-77
2021/09/20 06:07:47;;;;;;;7.10;2.33;;;13.40;99.90;;;;;;2624160;47;20276;-75
2021/09/20 06:10:17;;;;;;;11.27;3.22;;;13.40;99.90;;;;;;2622514;47;20215;-75
2021/09/20 06:12:47;;;;;;;2.83;2.53;;;13.40;99.90;;;;;;2625849;54;20159;-75
2021/09/20 06:15:16;;;;;;;2.70;2.25;;;13.40;99.90;;;;;;2627197;47;20149;-75
2021/09/20 06:17:45;;;;;;;4.45;2.20;;;13.30;99.90;;;;;;2627986;54;20151;-76
2021/09/20 06:20:15;;;;;;;2.55;2.35;;;13.40;99.90;;;;;;2627048;54;20224;-75
2021/09/20 06:22:47;;;;;;;4.57;2.65;;;13.40;99.90;;;;;;2627242;54;20653;-75
2021/09/20 06:25:15;;;;;;;2.78;2.58;;;13.40;99.90;;;;;;2626998;54;20257;-73
2021/09/20 06:27:45;;;;;;;4.35;2.65;;;13.40;99.90;;;;;;2625155;54;20200;-74
2021/09/20 06:30:15;;;;;;;3.25;2.25;;;13.50;99.90;;;;;;2625802;47;20717;-73
2021/09/20 06:32:45;;;;;;;4.55;2.35;;;13.50;99.90;;;;;;2628443;39;20728;-73
2021/09/20 06:35:14;;;;;;;2.78;2.40;;;13.50;99.90;;;;;;2626473;54;20133;-73
2021/09/20 06:37:43;;;;;;;4.63;2.65;;;13.60;99.90;;;;;;2625809;39;20535;-73
2021/09/20 06:40:16;;;;;;;2.85;2.25;;;13.50;99.90;;;;;;2625330;47;20827;-73
2021/09/20 06:42:45;;;;;;;5.13;2.40;;;13.60;99.90;;;;;;2626570;54;20142;-73
2021/09/20 06:45:14;;;;;;;4.28;2.47;;;13.70;99.90;;;;;;2626392;47;20248;-73
2021/09/20 06:47:43;;;;;;;2.63;2.42;;;13.70;99.90;;;;;;2626405;47;20157;-74
2021/09/20 06:50:14;;;;;;;6.20;2.75;;;13.90;99.90;;;;;;2625888;54;20154;-73
2021/09/20 06:52:43;;;;;;;6.80;3.00;;;13.90;99.90;;;;;;2622525;54;20165;-73
2021/09/20 06:55:16;;;;;;;4.93;2.75;;;14.00;99.90;;;;;;2618786;39;20622;-73
2021/09/20 06:57:45;;;;;;;3.45;2.25;;;14.00;99.90;;;;;;2618428;47;20141;-73
2021/09/20 07:00:15;;;;;;;5.65;2.83;;;14.10;99.90;;;;;;2618264;46;20169;-74
2021/09/20 07:02:44;;;;;;;3.47;2.35;;;14.20;99.90;;;;;;2618221;54;20153;-74
2021/09/20 07:05:14;;;;;;;5.45;2.25;;;13.90;99.90;;;;;;2617760;54;20149;-74
2021/09/20 07:07:42;;;;;;;2.75;2.55;;;13.90;99.90;;;;;;2618263;54;20160;-74
2021/09/20 07:10:12;;;;;;;5.72;3.25;;;13.90;99.90;;;;;;2618820;47;20165;-73
2021/09/20 07:12:44;;;;;;;3.13;2.50;;;13.90;99.90;;;;;;2618929;46;20153;-73
2021/09/20 07:15:14;;;;;;;4.97;2.55;;;13.90;99.90;;;;;;2618455;46;20226;-74
2021/09/20 07:17:43;;;;;;;3.83;2.70;;;14.00;99.90;;;;;;2618770;47;20153;-73
2021/09/20 07:20:14;;;;;;;3.22;2.28;;;14.00;99.90;;;;;;2618827;47;20204;-73
2021/09/20 07:22:43;;;;;;;5.22;2.85;;;14.30;99.90;;;;;;2619283;47;20157;-73
2021/09/20 07:25:13;;;;;;;3.08;2.80;;;14.30;99.90;;;;;;2618598;47;20682;-73
2021/09/20 07:27:45;;;;;;;4.32;2.60;;;14.40;99.90;;;;;;2625658;39;20634;-73
2021/09/20 07:30:17;;;;;;;4.10;2.70;;;14.50;99.90;;;;;;2624546;47;20177;-72
2021/09/20 07:32:46;;;;;;;3.35;2.90;;;14.50;99.90;;;;;;2618445;54;20149;-73
2021/09/20 07:35:16;;;;;;;7.57;2.72;;;14.50;99.90;;;;;;2618544;54;20161;-73
2021/09/20 07:37:45;;;;;;;6.43;2.88;;;14.50;99.90;;;;;;2618691;54;20142;-73
2021/09/20 07:40:15;;;;;;;6.38;3.17;;;14.50;99.90;;;;;;2618483;47;20185;-74
2021/09/20 07:42:48;;;;;;;4.07;2.92;;;14.60;99.90;;;;;;2618435;54;20678;-73
2021/09/20 07:45:17;;;;;;;4.25;2.67;;;14.50;99.90;;;;;;2618344;54;20172;-73
2021/09/20 07:47:46;;;;;;;3.72;2.72;;;14.30;99.90;;;;;;2617913;54;20201;-73
2021/09/20 07:50:17;;;;;;;3.38;3.03;;;14.30;99.90;;;;;;2618748;47;20161;-73
2021/09/20 07:52:47;;;;;;;3.65;3.10;;;14.40;99.90;;;;;;2618267;54;20149;-73
2021/09/20 07:55:16;;;;;;;4.82;3.85;;;14.50;99.90;;;;;;2618302;54;20161;-73
2021/09/20 07:57:48;;;;;;;7.80;3.38;;;14.50;99.90;;;;;;2618457;54;20204;-74
2021/09/20 08:00:18;;;;;;;4.07;2.70;;;14.60;99.90;;;;;;2618229;47;20176;-74
2021/09/20 08:02:46;;;;;;;3.63;2.80;;;14.60;99.90;;;;;;2619167;31;20635;-73
2021/09/20 08:05:15;;;;;;;2.78;2.58;;;14.40;99.90;;;;;;2618426;54;20152;-73
2021/09/20 08:07:44;;;;;;;7.28;3.30;;;14.40;99.90;;;;;;2618435;54;20183;-74
2021/09/20 08:10:13;;;;;;;7.40;2.88;;;14.30;99.90;;;;;;2618586;54;20169;-74
2021/09/20 08:12:42;;;;;;;3.67;2.95;;;14.50;99.90;;;;;;2618394;54;20177;-74
2021/09/20 08:15:14;;;;;;;5.57;2.88;;;14.50;99.90;;;;;;2618411;54;20145;-74
2021/09/20 08:17:43;;;;;;;3.65;3.35;;;14.70;99.90;;;;;;2618440;54;20145;-74
2021/09/20 08:20:13;;;;;;;3.22;2.80;;;14.70;99.90;;;;;;2618626;54;20210;-73
2021/09/20 08:22:42;;;;;;;11.73;7.63;;;14.70;99.90;;;;;;2618650;54;20702;-72
2021/09/20 08:25:11;;;;;;;4.00;2.92;;;14.70;99.90;;;;;;2618334;47;20153;-73
2021/09/20 08:27:40;;;;;;;9.07;5.13;;;14.70;99.90;;;;;;2618779;39;20675;-72
2021/09/20 08:30:13;;;;;;;10.50;5.97;;;14.90;99.90;;;;;;2617978;54;20181;-72
2021/09/20 08:32:42;;;;;;;7.13;3.70;;;15.00;99.90;;;;;;2618280;54;20137;-73
2021/09/20 08:35:11;;;;;;;4.47;3.15;;;15.00;99.90;;;;;;2617477;47;20164;-73
2021/09/20 08:37:40;;;;;;;11.55;5.85;;;14.90;99.90;;;;;;2618441;54;20141;-72
2021/09/20 08:40:11;;;;;;;15.27;9.10;;;15.10;99.90;;;;;;2618446;54;20196;-72
2021/09/20 08:42:42;;;;;;;11.25;7.13;;;15.30;99.90;;;;;;2618535;46;20171;-72
2021/09/20 08:45:16;;;;;;;4.40;3.53;;;15.50;99.90;;;;;;2618422;47;20152;-73
2021/09/20 08:47:48;;;;;;;3.35;3.05;;;15.40;99.90;;;;;;2618260;54;20149;-74
2021/09/20 08:50:19;;;;;;;8.18;2.72;;;15.40;99.90;;;;;;2617833;54;20183;-74
2021/09/20 08:52:49;;;;;;;2.50;2.30;;;15.10;99.90;;;;;;2618101;47;20165;-74
2021/09/20 08:55:18;;;;;;;6.15;3.20;;;15.40;99.90;;;;;;2618248;39;20665;-74
2021/09/20 08:57:47;;;;;;;5.05;2.70;;;15.30;99.90;;;;;;2618112;54;20221;-74
2021/09/20 09:00:20;;;;;;;3.28;2.97;;;15.40;99.90;;;;;;2618480;39;20584;-73
2021/09/20 09:02:48;;;;;;;3.15;2.38;;;15.40;99.90;;;;;;2618289;54;20171;-73
2021/09/20 09:05:21;;;;;;;3.95;3.00;;;15.40;99.90;;;;;;2618107;54;20145;-73
2021/09/20 09:07:52;;;;;;;5.05;2.50;;;15.50;99.90;;;;;;2618412;54;20184;-73
2021/09/20 09:10:23;;;;;;;2.85;2.47;;;15.50;99.90;;;;;;2618409;47;20187;-73
2021/09/20 09:12:54;;;;;;;4.85;3.05;;;15.50;99.90;;;;;;2618367;47;20148;-75
2021/09/20 09:15:28;;;;;;;4.70;3.42;;;15.60;99.90;;;;;;2618185;54;20157;-73
2021/09/20 09:17:58;;;;;;;4.80;3.10;;;15.80;99.90;;;;;;2618518;47;20699;-72
2021/09/20 09:20:29;;;;;;;2.85;2.30;;;15.70;99.90;;;;;;2619319;47;20208;-73
2021/09/20 09:23:00;;;;;;;4.55;3.53;;;15.80;99.90;;;;;;2618193;54;20137;-73
2021/09/20 09:25:31;;;;;;;5.88;4.30;;;15.80;99.90;;;;;;2617887;54;20745;-73
2021/09/20 09:28:03;;;;;;;3.45;2.85;;;15.80;99.90;;;;;;2618424;47;20195;-72
2021/09/20 09:30:43;;;;;;;4.10;2.33;;;15.90;99.90;;;;;;2618046;47;20184;-73
2021/09/20 09:33:14;;;;;;;2.45;1.88;;;16.10;99.90;;;;;;2618105;47;20754;-71
2021/09/20 09:35:47;;;;;;;4.72;2.25;;;16.10;99.90;;;;;;2618183;47;20164;-73
2021/09/20 09:38:16;;;;;;;3.03;2.25;;;16.20;99.90;;;;;;2618313;54;20154;-73
2021/09/20 09:40:53;;;;;;;2.70;2.13;;;16.30;99.90;;;;;;2617957;54;20177;-73
2021/09/20 09:43:27;;;;;;;3.67;2.15;;;16.30;99.90;;;;;;2617896;47;20172;-72
2021/09/20 09:45:59;;;;;;;6.18;2.72;;;16.40;99.90;;;;;;2618178;54;20158;-73
2021/09/20 09:48:32;;;;;;;2.05;1.70;;;16.50;99.90;;;;;;2618614;39;20570;-74
2021/09/20 09:51:03;;;;;;;2.40;2.20;;;16.60;99.90;;;;;;2618248;54;20185;-73
2021/09/20 09:53:35;;;;;;;1.98;1.60;;;16.50;99.90;;;;;;2618052;47;20168;-73
2021/09/20 09:56:19;;;;;;;2.20;2.03;;;16.50;99.90;;;;;;2617613;51;20157;-72
2021/09/20 09:58:59;;;;;;;13.25;3.00;;;16.70;99.90;;;;;;2618452;47;20157;-72
2021/09/20 10:01:34;;;;;;;2.15;1.85;;;16.90;99.90;;;;;;2618872;39;20519;-72
2021/09/20 10:04:09;;;;;;;7.38;1.95;;;16.90;99.90;;;;;;2618037;54;20155;-73
2021/09/20 10:06:57;;;;;;;3.13;2.20;;;17.10;99.90;;;;;;2617851;53;20133;-73
2021/09/20 10:09:28;;;;;;;7.72;2.78;;;17.30;99.90;;;;;;2618074;50;20168;-72
2021/09/20 10:11:58;;;;;;;3.03;1.95;;;17.40;99.90;;;;;;2618082;54;20145;-73
2021/09/20 10:14:28;;;;;;;2.67;1.65;;;17.40;99.90;;;;;;2617985;54;20156;-72
2021/09/20 10:17:02;;;;;;;1.83;1.67;;;17.40;99.90;;;;;;2617984;47;20141;-71
2021/09/20 10:19:31;;;;;;;2.05;1.88;;;17.40;99.90;;;;;;2617920;47;20177;-73
2021/09/20 10:22:00;;;;;;;2.72;1.67;;;17.30;99.90;;;;;;2618087;47;20157;-69
2021/09/20 10:24:29;;;;;;;3.20;1.70;;;17.40;99.90;;;;;;2625321;47;20157;-72
2021/09/20 10:26:58;;;;;;;3.90;1.90;;;17.60;99.90;;;;;;2623641;39;20551;-71
2021/09/20 10:29:27;;;;;;;2.42;1.88;;;17.80;99.90;;;;;;2618049;54;20169;-72
2021/09/20 10:31:59;;;;;;;2.45;1.77;;;17.70;99.90;;;;;;2617229;50;20148;-72
2021/09/20 10:34:29;;;;;;;2.25;2.05;;;17.80;99.90;;;;;;2619930;47;20209;-72
2021/09/20 10:37:11;;;;;;;2.75;1.77;;;17.70;99.90;;;;;;2620408;54;20205;-71
2021/09/20 10:39:57;;;;;;;2.35;2.00;;;17.80;99.90;;;;;;2619488;47;20177;-72
2021/09/20 10:42:57;;;;;;;3.15;1.88;;;17.80;99.90;;;;;;2618177;47;20154;-71
2021/09/20 10:45:54;;;;;;;2.35;1.80;;;17.50;99.90;;;;;;2618864;54;20145;-72
2021/09/20 10:48:51;;;;;;;2.80;1.75;;;17.20;99.90;;;;;;2619243;47;20686;-72
2021/09/20 10:51:34;;;;;;;2.83;2.08;;;17.20;99.90;;;;;;2618819;47;20260;-72
2021/09/20 10:54:20;;;;;;;2.78;2.28;;;17.20;99.90;;;;;;2619002;54;20152;-71
2021/09/20 10:56:51;;;;;;;3.78;3.38;;;17.40;99.90;;;;;;2618939;51;20202;-71
2021/09/20 10:59:31;;;;;;;3.40;1.88;;;17.50;99.90;;;;;;2618974;54;20177;-72
2021/09/20 11:02:11;;;;;;;4.55;2.28;;;17.50;99.90;;;;;;2618970;47;20149;-71
2021/09/20 11:04:43;;;;;;;3.78;2.05;;;17.20;99.90;;;;;;2618661;47;20157;-72
2021/09/20 11:07:21;;;;;;;3.88;1.70;;;17.50;99.90;;;;;;2619100;54;20187;-71
2021/09/20 11:09:55;;;;;;;1.98;1.77;;;17.20;99.90;;;;;;2618969;54;20173;-72
2021/09/20 11:12:26;;;;;;;2.15;1.60;;;17.70;99.90;;;;;;2619464;46;20733;-72
2021/09/20 11:15:20;;;;;;;6.05;1.60;;;18.00;99.90;;;;;;2618948;47;20161;-72
2021/09/20 11:17:51;;;;;;;5.50;2.05;;;18.00;99.90;;;;;;2619209;54;20666;-72
2021/09/20 11:20:36;;;;;;;2.15;1.95;;;17.90;99.90;;;;;;2618320;54;20161;-72
2021/09/20 11:23:31;;;;;;;2.17;1.85;;;17.90;99.90;;;;;;2618797;47;20172;-71
2021/09/20 11:26:15;;;;;;;4.00;1.95;;;17.70;99.90;;;;;;2618824;54;20153;-71
2021/09/20 11:28:50;;;;;;;1.90;1.63;;;17.70;99.90;;;;;;2618775;46;20252;-72
2021/09/20 11:31:19;;;;;;;2.45;1.83;;;17.50;99.90;;;;;;2620158;39;20554;-72
2021/09/20 11:33:49;;;;;;;2.78;1.73;;;17.50;99.90;;;;;;2619270;54;20145;-73
2021/09/20 11:36:28;;;;;;;1.98;1.75;;;17.30;99.90;;;;;;2618757;54;20151;-72
2021/09/20 11:39:13;;;;;;;1.50;1.40;;;17.30;99.90;;;;;;2618810;47;20204;-72
2021/09/20 11:41:46;;;;;;;2.08;1.83;;;17.30;99.90;;;;;;2618677;54;20156;-73
2021/09/20 11:44:16;;;;;;;2.25;1.65;;;17.20;99.90;;;;;;2618613;47;20157;-73
2021/09/20 11:46:47;;;;;;;2.03;1.63;;;17.30;99.90;;;;;;2618684;54;20180;-72
2021/09/20 11:49:17;;;;;;;2.20;1.58;;;17.30;99.90;;;;;;2618821;39;20570;-72
2021/09/20 11:51:48;;;;;;;4.20;2.63;;;17.50;99.90;;;;;;2618491;54;20192;-73
2021/09/20 11:54:30;;;;;;;1.80;1.70;;;17.60;99.90;;;;;;2618419;47;20153;-72
2021/09/20 11:57:16;;;;;;;2.35;1.90;;;17.70;99.90;;;;;;2618946;39;20654;-72
2021/09/20 11:59:45;;;;;;;2.85;1.52;;;17.70;99.90;;;;;;2619271;47;20236;-71
2021/09/20 12:02:34;;;;;;;1.95;1.60;;;17.40;99.90;;;;;;2618499;50;20157;-72
2021/09/20 12:05:05;;;;;;;5.40;2.33;;;17.60;99.90;;;;;;2618175;47;20144;-72
2021/09/20 12:07:44;;;;;;;2.53;1.98;;;17.70;99.90;;;;;;2618305;54;20133;-72
2021/09/20 12:10:14;;;;;;;4.78;2.08;;;17.80;99.90;;;;;;2618294;47;20180;-72
2021/09/20 15:21:24;;;;;;;5.60;3.15;;;17.60;99.90;;;;;;2626592;47;20231;-75
2021/09/20 15:23:53;;;;;;;2.47;2.28;;;15.80;99.90;;;;;;2625618;47;20213;-72
2021/09/20 15:26:22;;;;;;;12.88;9.38;;;15.70;99.90;;;;;;2625992;47;20153;-75
2021/09/20 15:28:51;;;;;;;4.63;3.80;;;15.60;99.90;;;;;;2626353;47;20701;-74
2021/09/20 15:31:20;;;;;;;2.50;2.30;;;15.70;99.90;;;;;;2627339;47;20184;-75
2021/09/20 15:33:48;;;;;;;3.10;2.80;;;15.70;99.90;;;;;;2626954;47;20161;-74
2021/09/20 15:36:19;;;;;;;15.80;10.27;;;15.80;99.90;;;;;;2626471;46;20165;-76
2021/09/20 15:38:51;;;;;;;13.23;11.15;;;15.70;99.90;;;;;;2626564;54;20240;-75
2021/09/20 15:41:21;;;;;;;13.25;10.15;;;15.70;99.90;;;;;;2626727;54;20177;-75
2021/09/20 15:43:50;;;;;;;3.25;2.90;;;15.60;99.90;;;;;;2626795;54;20156;-77
2021/09/20 15:46:20;;;;;;;4.93;3.67;;;15.70;99.90;;;;;;2626507;47;20150;-75
2021/09/20 15:48:49;;;;;;;5.55;4.15;;;15.70;99.90;;;;;;2627019;47;20149;-73
2021/09/20 15:51:19;;;;;;;5.60;3.08;;;15.70;99.90;;;;;;2626479;47;20193;-75
2021/09/20 15:53:50;;;;;;;3.60;3.25;;;15.70;99.90;;;;;;2626075;54;20145;-75
2021/09/20 15:56:20;;;;;;;12.30;8.60;;;15.60;99.90;;;;;;2625995;54;20204;-74
2021/09/20 15:58:49;;;;;;;19.73;17.10;;;15.70;99.90;;;;;;2625374;39;20638;-74
2021/09/20 16:01:18;;;;;;;14.80;11.35;;;15.70;99.90;;;;;;2625763;54;20161;-75
2021/09/20 16:03:46;;;;;;;4.50;3.85;;;15.70;99.90;;;;;;2625768;54;20133;-75
2021/09/20 16:06:16;;;;;;;5.20;4.63;;;15.80;99.90;;;;;;2626329;47;20205;-77
2021/09/20 16:08:45;;;;;;;4.47;3.88;;;15.80;99.90;;;;;;2626049;54;20145;-75
2021/09/20 16:11:17;;;;;;;6.38;4.18;;;15.80;99.90;;;;;;2626431;46;20196;-75
2021/09/20 16:13:47;;;;;;;5.57;4.85;;;15.80;99.90;;;;;;2626516;54;20707;-75